createdAt,value
2023-05-01T00:01:34.101Z,22.73
2023-05-01T00:04:21.853Z,20.83
2023-05-01T00:07:07.251Z,29.70
2023-05-01T00:09:52.658Z,20.40
2023-05-01T00:12:38.063Z,21.17
2023-05-01T00:15:23.328Z,21.08
2023-05-01T00:18:08.754Z,21.70
2023-05-01T00:20:54.436Z,19.63
2023-05-01T00:23:39.990Z,22.90
2023-05-01T00:26:30.371Z,28.75
2023-05-01T00:29:17.051Z,34.85
2023-05-01T00:32:02.679Z,30.00
2023-05-01T00:34:48.642Z,27.65
2023-05-01T00:37:34.563Z,28.20
2023-05-01T00:40:21.037Z,25.85
2023-05-01T00:43:06.917Z,23.48
2023-05-01T00:45:52.346Z,31.05
2023-05-01T00:48:37.768Z,23.67
2023-05-01T00:51:23.477Z,23.80
2023-05-01T00:54:15.111Z,26.10
2023-05-01T00:57:00.871Z,20.08
2023-05-01T00:59:46.528Z,20.65
2023-05-01T01:02:33.994Z,19.55
2023-05-01T01:05:22.111Z,23.73
2023-05-01T01:08:33.841Z,21.25
2023-05-01T01:12:02.002Z,16.25
2023-05-01T01:15:12.574Z,15.10
2023-05-01T01:18:18.051Z,15.88
2023-05-01T01:21:09.013Z,14.27
2023-05-01T01:24:01.016Z,11.00
2023-05-01T01:27:02.648Z,14.38
2023-05-01T01:29:56.194Z,13.95
2023-05-01T01:33:10.295Z,15.57
2023-05-01T01:35:58.091Z,14.77
2023-05-01T01:38:46.799Z,11.05
2023-05-01T01:41:34.459Z,12.27
2023-05-01T01:44:34.797Z,11.73
2023-05-01T01:47:22.518Z,12.48
2023-05-01T01:50:09.522Z,11.95
2023-05-01T01:52:55.222Z,12.07
2023-05-01T01:55:41.691Z,15.77
2023-05-01T01:58:27.854Z,13.35
2023-05-01T02:01:14.287Z,12.88
2023-05-01T02:04:01.146Z,13.60
2023-05-01T02:06:48.292Z,13.13
2023-05-01T02:09:34.326Z,13.60
2023-05-01T02:12:21.147Z,14.23
2023-05-01T02:15:08.163Z,13.32
2023-05-01T02:17:54.216Z,15.95
2023-05-01T02:20:41.579Z,11.70
2023-05-01T02:23:31.253Z,10.80
2023-05-01T02:26:18.132Z,12.85
2023-05-01T02:29:05.002Z,14.95
2023-05-01T02:31:50.639Z,23.80
2023-05-01T02:34:36.732Z,17.10
2023-05-01T02:37:22.040Z,13.80
2023-05-01T02:40:08.605Z,13.10
2023-05-01T02:42:55.127Z,12.00
2023-05-01T02:45:41.599Z,13.38
2023-05-01T02:48:28.382Z,16.15
2023-05-01T02:51:14.190Z,10.88
2023-05-01T02:53:59.905Z,14.70
2023-05-01T02:56:46.466Z,13.00
2023-05-01T02:59:32.776Z,11.82
2023-05-01T03:02:18.293Z,13.70
2023-05-01T03:05:04.076Z,15.25
2023-05-01T03:07:51.356Z,16.83
2023-05-01T03:10:37.111Z,16.92
2023-05-01T03:13:23.045Z,18.00
2023-05-01T03:16:08.451Z,17.67
2023-05-01T03:18:54.245Z,14.20
2023-05-01T03:21:39.500Z,18.88
2023-05-01T03:24:24.942Z,22.60
2023-05-01T03:27:11.572Z,17.67
2023-05-01T03:29:57.569Z,15.80
2023-05-01T03:32:44.642Z,16.65
2023-05-01T03:35:38.215Z,16.35
2023-05-01T03:38:24.543Z,15.63
2023-05-01T03:41:28.441Z,17.45
2023-05-01T03:44:28.053Z,17.63
2023-05-01T03:47:13.511Z,17.98
2023-05-01T03:50:02.445Z,22.85
2023-05-01T03:52:49.462Z,16.50
2023-05-01T03:55:35.364Z,22.75
2023-05-01T03:58:22.336Z,17.15
2023-05-01T04:01:08.969Z,20.75
2023-05-01T04:03:59.934Z,17.42
2023-05-01T04:06:46.141Z,17.85
2023-05-01T04:09:31.847Z,15.77
2023-05-01T04:12:17.772Z,15.68
2023-05-01T04:15:03.860Z,17.05
2023-05-01T04:17:50.136Z,15.13
2023-05-01T04:20:36.765Z,14.32
2023-05-01T04:23:23.179Z,12.85
2023-05-01T04:26:13.174Z,14.38
2023-05-01T04:28:58.563Z,12.93
2023-05-01T04:31:45.014Z,13.20
2023-05-01T04:34:30.957Z,17.17
2023-05-01T04:37:18.362Z,18.08
2023-05-01T04:40:04.557Z,19.48
2023-05-01T04:42:50.245Z,19.08
2023-05-01T04:45:36.206Z,21.80
2023-05-01T04:48:22.813Z,16.58
2023-05-01T04:51:08.486Z,19.95
2023-05-01T04:53:54.456Z,20.85
2023-05-01T04:56:42.953Z,19.80
2023-05-01T04:59:29.474Z,18.77
2023-05-01T05:02:15.136Z,18.88
2023-05-01T05:05:00.863Z,20.30
2023-05-01T05:07:47.121Z,18.85
2023-05-01T05:10:50.287Z,23.13
2023-05-01T05:13:48.737Z,23.27
2023-05-01T05:16:34.973Z,24.35
2023-05-01T05:19:20.719Z,22.88
2023-05-01T05:22:06.242Z,21.45
2023-05-01T05:25:04.312Z,23.65
2023-05-01T05:27:50.831Z,23.27
2023-05-01T05:30:37.142Z,21.40
2023-05-01T05:33:27.214Z,23.85
2023-05-01T05:36:12.700Z,21.67
2023-05-01T05:39:00.677Z,20.58
2023-05-01T05:41:46.447Z,20.15
2023-05-01T05:44:33.089Z,19.10
2023-05-01T05:47:19.063Z,18.88
2023-05-01T05:50:04.604Z,18.40
2023-05-01T05:52:51.698Z,19.75
2023-05-01T05:55:37.601Z,22.13
2023-05-01T05:58:24.979Z,21.58
2023-05-01T06:01:11.705Z,21.45
2023-05-01T06:03:58.431Z,22.77
2023-05-01T06:06:45.982Z,16.92
2023-05-01T06:09:32.382Z,19.55
2023-05-01T06:12:18.119Z,14.02
2023-05-01T06:15:04.471Z,16.30
2023-05-01T06:17:51.305Z,18.23
2023-05-01T06:20:37.386Z,15.73
2023-05-01T06:23:24.242Z,15.48
2023-05-01T06:26:40.320Z,12.10
2023-05-01T06:29:25.890Z,15.93
2023-05-01T06:32:11.694Z,16.02
2023-05-01T06:34:57.658Z,14.23
2023-05-01T06:37:43.686Z,14.00
2023-05-01T06:40:31.749Z,10.75
2023-05-01T06:43:17.121Z,12.52
2023-05-01T06:46:04.567Z,12.25
2023-05-01T06:48:50.577Z,14.15
2023-05-01T06:51:36.506Z,13.60
2023-05-01T06:54:21.925Z,10.02
2023-05-01T06:57:07.766Z,10.50
2023-05-01T06:59:54.320Z,11.35
2023-05-01T07:02:41.089Z,9.98
2023-05-01T07:05:27.005Z,13.35
2023-05-01T07:08:12.632Z,10.35
2023-05-01T07:10:58.263Z,8.77
2023-05-01T07:13:43.841Z,10.02
2023-05-01T07:16:29.351Z,9.68
2023-05-01T07:19:15.401Z,10.32
2023-05-01T07:22:00.967Z,6.60
2023-05-01T07:24:46.530Z,10.40
2023-05-01T07:27:31.778Z,9.95
2023-05-01T07:30:17.033Z,9.82
2023-05-01T07:33:02.430Z,10.40
2023-05-01T07:35:47.739Z,8.02
2023-05-01T07:38:33.517Z,9.02
2023-05-01T07:41:19.223Z,10.52
2023-05-01T07:44:04.686Z,9.00
2023-05-01T07:46:50.274Z,7.97
2023-05-01T07:49:39.869Z,8.10
2023-05-01T07:52:25.248Z,9.38
2023-05-01T07:55:11.007Z,7.65
2023-05-01T07:57:56.492Z,7.45
2023-05-01T08:00:41.942Z,9.55
2023-05-01T08:03:31.191Z,8.90
2023-05-01T08:06:16.810Z,6.43
2023-05-01T08:09:02.198Z,6.97
2023-05-01T08:11:47.589Z,7.82
2023-05-01T08:14:33.268Z,6.47
2023-05-01T08:17:19.102Z,8.07
2023-05-01T08:20:05.177Z,6.55
2023-05-01T08:22:51.301Z,6.15
2023-05-01T08:25:37.157Z,7.25
2023-05-01T08:28:23.121Z,6.55
2023-05-01T08:31:10.108Z,4.20
2023-05-01T08:33:55.445Z,9.55
2023-05-01T08:36:40.776Z,8.65
2023-05-01T08:39:26.073Z,6.18
2023-05-01T08:42:11.546Z,6.85
2023-05-01T08:44:59.337Z,6.10
2023-05-01T08:47:45.591Z,7.22
2023-05-01T08:50:31.964Z,4.93
2023-05-01T08:53:18.973Z,6.18
2023-05-01T08:56:07.732Z,4.97
2023-05-01T08:58:54.087Z,5.20
2023-05-01T09:01:40.189Z,6.18
2023-05-01T09:04:25.977Z,5.70
2023-05-01T09:07:11.909Z,6.10
2023-05-01T09:09:57.610Z,5.80
2023-05-01T09:12:46.142Z,5.55
2023-05-01T09:15:32.550Z,5.60
2023-05-01T09:18:18.388Z,6.35
2023-05-01T09:21:03.857Z,7.65
2023-05-01T09:23:53.889Z,5.55
2023-05-01T09:26:41.968Z,6.05
2023-05-01T09:29:37.815Z,6.47
2023-05-01T09:32:30.208Z,5.88
2023-05-01T09:35:17.985Z,6.50
2023-05-01T09:38:04.075Z,5.55
2023-05-01T09:40:50.410Z,5.47
2023-05-01T09:43:35.578Z,5.88
2023-05-01T09:46:23.019Z,7.82
2023-05-01T09:52:10.860Z,5.18
2023-05-01T09:55:13.765Z,6.15
2023-05-01T09:57:59.467Z,5.82
2023-05-01T10:00:49.646Z,6.32
2023-05-01T10:03:35.445Z,6.00
2023-05-01T10:06:28.714Z,7.30
2023-05-01T10:09:27.700Z,5.05
2023-05-01T10:12:24.203Z,3.92
2023-05-01T10:15:23.349Z,4.20
2023-05-01T10:18:11.883Z,2.45
2023-05-01T10:20:57.419Z,6.53
2023-05-01T10:23:42.838Z,6.40
2023-05-01T10:26:28.646Z,3.85
2023-05-01T10:29:14.739Z,4.85
2023-05-01T10:32:01.095Z,5.13
2023-05-01T10:34:50.404Z,4.80
2023-05-01T10:37:46.888Z,5.82
2023-05-01T10:40:48.263Z,7.10
2023-05-01T10:43:33.911Z,5.78
2023-05-01T10:46:19.332Z,5.60
2023-05-01T10:49:05.050Z,5.38
2023-05-01T10:52:01.170Z,4.50
2023-05-01T10:54:47.057Z,5.88
2023-05-01T10:57:43.784Z,3.75
2023-05-01T11:00:29.241Z,2.63
2023-05-01T11:03:24.431Z,5.38
2023-05-01T11:06:09.962Z,5.78
2023-05-01T11:08:56.236Z,5.18
2023-05-01T11:11:44.558Z,6.43
2023-05-01T11:14:52.378Z,7.43
2023-05-01T11:17:41.401Z,6.20
2023-05-01T11:20:26.936Z,4.70
2023-05-01T11:23:17.780Z,5.85
2023-05-01T11:26:04.911Z,6.18
2023-05-01T11:28:54.288Z,5.32
2023-05-01T11:31:39.849Z,6.72
2023-05-01T11:34:26.031Z,6.00
2023-05-01T11:37:11.612Z,5.80
2023-05-01T11:39:57.037Z,8.13
2023-05-01T11:42:42.430Z,5.75
2023-05-01T11:45:27.873Z,6.45
2023-05-01T11:48:16.597Z,4.70
2023-05-01T11:51:12.324Z,6.68
2023-05-01T11:54:09.562Z,3.50
2023-05-01T11:57:02.210Z,7.68
2023-05-01T11:59:48.167Z,6.43
2023-05-01T12:02:33.798Z,5.13
2023-05-01T12:05:19.321Z,6.57
2023-05-01T12:08:12.693Z,5.60
2023-05-01T12:10:58.439Z,6.30
2023-05-01T12:13:44.247Z,5.55
2023-05-01T12:16:30.617Z,6.38
2023-05-01T12:19:17.448Z,5.45
2023-05-01T12:22:09.547Z,5.35
2023-05-01T12:24:55.015Z,5.50
2023-05-01T12:27:46.723Z,6.95
2023-05-01T12:30:32.155Z,6.85
2023-05-01T12:33:20.221Z,6.65
2023-05-01T12:36:13.242Z,3.90
2023-05-01T12:39:00.847Z,4.95
2023-05-01T12:41:48.320Z,7.75
2023-05-01T12:44:33.744Z,5.32
2023-05-01T12:47:19.095Z,6.30
2023-05-01T12:50:04.798Z,4.80
2023-05-01T12:52:50.243Z,5.47
2023-05-01T12:55:46.689Z,7.10
2023-05-01T12:58:37.278Z,5.28
2023-05-01T13:01:27.466Z,6.93
2023-05-01T13:04:13.262Z,6.90
2023-05-01T13:06:59.430Z,4.90
2023-05-01T13:09:55.365Z,6.65
2023-05-01T13:12:45.498Z,6.22
2023-05-01T13:15:30.944Z,6.03
2023-05-01T13:18:16.322Z,5.90
2023-05-01T13:21:10.090Z,5.78
2023-05-01T13:26:41.983Z,4.45
2023-05-01T13:29:28.305Z,5.32
2023-05-01T13:32:13.967Z,4.85
2023-05-01T13:35:02.924Z,5.15
2023-05-01T13:37:49.135Z,4.93
2023-05-01T13:40:34.778Z,7.93
2023-05-01T13:43:22.362Z,4.80
2023-05-01T13:46:07.782Z,5.60
2023-05-01T13:48:53.528Z,5.03
2023-05-01T13:51:44.419Z,7.57
2023-05-01T13:54:29.752Z,8.23
2023-05-01T13:57:18.620Z,5.68
2023-05-01T14:00:07.273Z,7.88
2023-05-01T14:02:59.848Z,9.20
2023-05-01T14:05:46.605Z,7.05
2023-05-01T14:08:32.624Z,5.05
2023-05-01T14:11:18.420Z,6.78
2023-05-01T14:14:05.028Z,8.95
2023-05-01T14:16:51.101Z,5.07
2023-05-01T14:19:37.524Z,7.07
2023-05-01T14:22:23.348Z,7.40
2023-05-01T14:25:09.103Z,6.60
2023-05-01T14:27:55.201Z,6.97
2023-05-01T14:30:41.485Z,8.48
2023-05-01T14:33:27.241Z,7.68
2023-05-01T14:36:12.920Z,7.85
2023-05-01T14:39:02.536Z,7.15
2023-05-01T14:41:47.958Z,7.80
2023-05-01T14:44:33.893Z,9.15
2023-05-01T14:47:21.769Z,7.90
2023-05-01T14:50:07.678Z,7.47
2023-05-01T14:52:58.172Z,6.82
2023-05-01T14:55:43.598Z,7.95
2023-05-01T14:58:28.987Z,7.75
2023-05-01T15:01:15.216Z,8.25
2023-05-01T15:04:03.365Z,8.15
2023-05-01T15:06:50.178Z,7.95
2023-05-01T15:09:35.609Z,8.52
2023-05-01T15:12:20.985Z,8.57
2023-05-01T15:15:07.355Z,8.00
2023-05-01T15:17:53.200Z,7.18
2023-05-01T15:20:38.652Z,7.68
2023-05-01T15:23:25.110Z,7.72
2023-05-01T15:26:11.032Z,7.88
2023-05-01T15:28:56.756Z,7.07
2023-05-01T15:31:42.435Z,9.13
2023-05-01T15:34:28.722Z,7.53
2023-05-01T15:37:14.197Z,8.43
2023-05-01T15:39:59.624Z,8.38
2023-05-01T15:42:48.072Z,9.13
2023-05-01T15:45:34.001Z,9.07
2023-05-01T15:48:19.597Z,9.57
2023-05-01T15:51:05.564Z,9.50
2023-05-01T15:53:51.470Z,7.28
2023-05-01T15:56:37.709Z,8.13
2023-05-01T15:59:23.397Z,7.50
2023-05-01T16:02:09.318Z,7.80
2023-05-01T16:04:54.965Z,8.82
2023-05-01T16:07:40.443Z,8.82
2023-05-01T16:10:26.036Z,9.05
2023-05-01T16:13:11.360Z,9.68
2023-05-01T16:15:56.823Z,9.63
2023-05-01T16:18:42.174Z,6.57
2023-05-01T16:21:28.152Z,6.93
2023-05-01T16:24:14.374Z,7.68
2023-05-01T16:26:59.832Z,8.30
2023-05-01T16:29:45.523Z,8.68
2023-05-01T16:32:31.170Z,8.60
2023-05-01T16:35:18.374Z,8.32
2023-05-01T16:38:03.813Z,7.88
2023-05-01T16:40:49.404Z,9.77
2023-05-01T16:43:35.464Z,8.50
2023-05-01T16:46:21.201Z,10.88
2023-05-01T16:49:06.376Z,8.13
2023-05-01T16:51:56.518Z,7.93
2023-05-01T16:54:41.910Z,8.50
2023-05-01T16:57:27.906Z,9.68
2023-05-01T17:00:14.864Z,10.27
2023-05-01T17:03:00.584Z,7.82
2023-05-01T17:05:46.289Z,7.85
2023-05-01T17:08:31.813Z,8.93
2023-05-01T17:11:18.136Z,9.55
2023-05-01T17:14:04.950Z,7.90
2023-05-01T17:16:51.074Z,8.65
2023-05-01T17:19:38.919Z,9.07
2023-05-01T17:22:25.184Z,8.30
2023-05-01T17:25:11.513Z,9.20
2023-05-01T17:27:56.833Z,8.77
2023-05-01T17:30:42.382Z,9.43
2023-05-01T17:33:30.221Z,9.43
2023-05-01T17:36:15.703Z,9.63
2023-05-01T17:39:01.565Z,9.02
2023-05-01T17:41:47.637Z,7.95
2023-05-01T17:44:33.817Z,9.90
2023-05-01T17:47:19.718Z,9.35
2023-05-01T17:50:05.640Z,9.45
2023-05-01T17:52:51.595Z,9.57
2023-05-01T17:55:38.968Z,9.65
2023-05-01T17:58:26.381Z,8.45
2023-05-01T18:01:14.364Z,9.70
2023-05-01T18:04:00.584Z,9.18
2023-05-01T18:06:46.389Z,9.43
2023-05-01T18:09:32.239Z,9.05
2023-05-01T18:12:17.814Z,9.65
2023-05-01T18:15:05.617Z,10.82
2023-05-01T18:17:51.536Z,11.85
2023-05-01T18:20:37.207Z,14.23
2023-05-01T18:23:25.191Z,12.40
2023-05-01T18:26:10.890Z,11.32
2023-05-01T18:28:56.379Z,12.38
2023-05-01T18:31:42.028Z,14.75
2023-05-01T18:34:27.455Z,15.65
2023-05-01T18:37:12.980Z,29.60
2023-05-01T18:39:58.873Z,44.30
2023-05-01T18:42:44.721Z,26.75
2023-05-01T18:45:30.889Z,23.35
2023-05-01T18:48:16.688Z,34.67
2023-05-01T18:51:09.141Z,52.30
2023-05-01T18:53:54.973Z,69.30
2023-05-01T18:56:40.305Z,43.10
2023-05-01T18:59:30.840Z,25.38
2023-05-01T19:02:16.467Z,20.58
2023-05-01T19:05:02.387Z,23.35
2023-05-01T19:07:51.781Z,26.13
2023-05-01T19:10:37.407Z,30.83
2023-05-01T19:13:22.835Z,31.45
2023-05-01T19:16:08.710Z,27.27
2023-05-01T19:18:54.667Z,26.48
2023-05-01T19:21:39.892Z,29.90
2023-05-01T19:24:25.742Z,30.13
2023-05-01T19:27:11.811Z,26.65
2023-05-01T19:30:00.938Z,26.73
2023-05-01T19:32:47.335Z,22.83
2023-05-01T19:35:33.185Z,21.58
2023-05-01T19:38:19.245Z,24.92
2023-05-01T19:41:04.627Z,33.20
2023-05-01T19:43:49.882Z,30.40
2023-05-01T19:46:35.343Z,27.27
2023-05-01T19:49:20.769Z,26.58
2023-05-01T19:52:06.557Z,22.08
2023-05-01T19:54:52.049Z,23.83
2023-05-01T19:57:37.546Z,27.48
2023-05-01T20:00:23.647Z,23.20
2023-05-01T20:03:09.798Z,19.83
2023-05-01T20:05:56.111Z,22.40
2023-05-01T20:08:42.265Z,23.02
2023-05-01T20:11:27.768Z,21.70
2023-05-01T20:14:13.078Z,25.75
2023-05-01T20:16:58.580Z,20.42
2023-05-01T20:19:43.934Z,29.98
2023-05-01T20:22:29.658Z,21.90
2023-05-01T20:25:15.407Z,21.45
2023-05-01T20:28:03.263Z,21.10
2023-05-01T20:30:49.253Z,23.90
2023-05-01T20:33:34.594Z,19.27
2023-05-01T20:36:20.461Z,19.42
2023-05-01T20:39:06.074Z,21.63
2023-05-01T20:41:51.518Z,23.83
2023-05-01T20:44:37.047Z,23.50
2023-05-01T20:47:22.565Z,22.38
2023-05-01T20:50:08.615Z,20.67
2023-05-01T20:52:55.300Z,26.23
2023-05-01T20:55:40.599Z,28.55
2023-05-01T20:58:26.187Z,27.30
2023-05-01T21:01:12.045Z,30.48
2023-05-01T21:03:59.868Z,29.35
2023-05-01T21:06:45.800Z,26.88
2023-05-01T21:09:31.472Z,32.47
2023-05-01T21:12:17.103Z,29.42
2023-05-01T21:15:03.428Z,24.48
2023-05-01T21:17:49.488Z,23.85
2023-05-01T21:20:35.368Z,22.33
2023-05-01T21:23:21.028Z,21.60
2023-05-01T21:26:06.606Z,21.77
2023-05-01T21:28:52.074Z,22.65
2023-05-01T21:31:38.769Z,26.17
2023-05-01T21:34:24.142Z,21.98
2023-05-01T21:37:10.649Z,24.33
2023-05-01T21:40:00.929Z,23.70
2023-05-01T21:42:46.948Z,20.80
2023-05-01T21:45:36.699Z,16.55
2023-05-01T21:48:22.324Z,17.88
2023-05-01T21:51:08.116Z,17.15
2023-05-01T21:53:54.450Z,14.45
2023-05-01T21:56:39.739Z,15.82
2023-05-01T21:59:28.147Z,15.93
2023-05-01T22:02:13.950Z,19.10
2023-05-01T22:04:59.395Z,32.85
2023-05-01T22:07:46.937Z,21.35
2023-05-01T22:10:32.806Z,17.35
2023-05-01T22:13:18.296Z,17.60
2023-05-01T22:16:04.036Z,16.80
2023-05-01T22:18:50.570Z,19.17
2023-05-01T22:21:36.297Z,19.58
2023-05-01T22:24:22.067Z,15.60
2023-05-01T22:27:07.416Z,16.40
2023-05-01T22:29:54.250Z,14.35
2023-05-01T22:32:48.353Z,19.27
2023-05-01T22:35:33.728Z,21.15
2023-05-01T22:38:19.117Z,19.00
2023-05-01T22:41:04.522Z,23.40
2023-05-01T22:43:49.846Z,18.33
2023-05-01T22:46:35.328Z,16.10
2023-05-01T22:49:21.320Z,15.27
2023-05-01T22:52:06.876Z,17.27
2023-05-01T22:54:52.715Z,16.55
2023-05-01T22:57:38.130Z,16.42
2023-05-01T23:00:23.656Z,14.02
2023-05-01T23:03:09.573Z,14.82
2023-05-01T23:05:55.012Z,14.93
2023-05-01T23:08:41.093Z,14.52
2023-05-01T23:11:33.960Z,15.07
2023-05-01T23:14:19.575Z,17.65
2023-05-01T23:17:05.007Z,17.10
2023-05-01T23:19:50.275Z,14.60
2023-05-01T23:22:38.124Z,14.35
2023-05-01T23:25:25.766Z,17.55
2023-05-01T23:28:12.176Z,15.38
2023-05-01T23:30:59.944Z,16.90
2023-05-01T23:33:45.606Z,17.33
2023-05-01T23:36:31.582Z,18.70
2023-05-01T23:39:16.814Z,15.00
2023-05-01T23:42:02.554Z,15.20
2023-05-01T23:44:48.521Z,14.10
2023-05-01T23:47:34.101Z,14.57
2023-05-01T23:50:19.518Z,19.48
2023-05-01T23:53:08.879Z,14.93
2023-05-01T23:55:54.489Z,13.50
2023-05-01T23:58:40.428Z,13.45
